sensor_id;sensor_type;location;lat;lon;timestamp;temperature;humidity
12833;DHT22;6483;51.310;4.462;2022-12-08T00:01:25;4.70;99.90
12833;DHT22;6483;51.310;4.462;2022-12-08T00:03:52;4.60;99.90
12833;DHT22;6483;51.310;4.462;2022-12-08T00:06:31;4.60;99.90
12833;DHT22;6483;51.310;4.462;2022-12-08T00:09:22;4.60;99.90
12833;DHT22;6483;51.310;4.462;2022-12-08T00:12:17;4.60;99.90
12833;DHT22;6483;51.310;4.462;2022-12-08T00:14:49;4.60;99.90
12833;DHT22;6483;51.310;4.462;2022-12-08T00:17:15;4.70;99.90
12833;DHT22;6483;51.310;4.462;2022-12-08T00:19:44;4.60;99.90
12833;DHT22;6483;51.310;4.462;2022-12-08T00:22:11;4.70;99.90
12833;DHT22;6483;51.310;4.462;2022-12-08T00:24:39;6.10;99.90
12833;DHT22;6483;51.310;4.462;2022-12-08T00:27:10;4.60;99.90
12833;DHT22;6483;51.310;4.462;2022-12-08T00:29:39;4.50;99.90
12833;DHT22;6483;51.310;4.462;2022-12-08T00:32:05;4.60;99.90
12833;DHT22;6483;51.310;4.462;2022-12-08T00:34:35;4.60;99.90
12833;DHT22;6483;51.310;4.462;2022-12-08T00:37:00;4.70;99.90
12833;DHT22;6483;51.310;4.462;2022-12-08T00:39:26;4.60;99.90
12833;DHT22;6483;51.310;4.462;2022-12-08T00:41:53;4.60;99.90
12833;DHT22;6483;51.310;4.462;2022-12-08T00:44:42;4.60;99.90
12833;DHT22;6483;51.310;4.462;2022-12-08T00:47:09;4.60;99.90
12833;DHT22;6483;51.310;4.462;2022-12-08T00:49:35;4.50;99.90
12833;DHT22;6483;51.310;4.462;2022-12-08T00:52:00;4.80;99.90
12833;DHT22;6483;51.310;4.462;2022-12-08T00:54:26;4.50;99.90
12833;DHT22;6483;51.310;4.462;2022-12-08T00:56:52;4.50;99.90
12833;DHT22;6483;51.310;4.462;2022-12-08T00:59:21;4.60;99.90
12833;DHT22;6483;51.310;4.462;2022-12-08T01:01:48;4.70;99.90
12833;DHT22;6483;51.310;4.462;2022-12-08T01:04:17;5.50;99.90
12833;DHT22;6483;51.310;4.462;2022-12-08T01:06:46;4.80;99.90
12833;DHT22;6483;51.310;4.462;2022-12-08T01:09:14;4.80;99.90
12833;DHT22;6483;51.310;4.462;2022-12-08T01:11:43;6.40;99.90
12833;DHT22;6483;51.310;4.462;2022-12-08T01:14:09;5.00;99.90
12833;DHT22;6483;51.310;4.462;2022-12-08T01:16:37;5.00;99.90
12833;DHT22;6483;51.310;4.462;2022-12-08T01:19:06;6.60;99.90
12833;DHT22;6483;51.310;4.462;2022-12-08T01:21:32;5.10;99.90
12833;DHT22;6483;51.310;4.462;2022-12-08T01:23:59;5.10;99.90
12833;DHT22;6483;51.310;4.462;2022-12-08T01:26:29;5.20;99.90
12833;DHT22;6483;51.310;4.462;2022-12-08T01:28:55;5.20;99.90
12833;DHT22;6483;51.310;4.462;2022-12-08T01:31:21;5.10;99.90
12833;DHT22;6483;51.310;4.462;2022-12-08T01:34:06;5.00;99.90
12833;DHT22;6483;51.310;4.462;2022-12-08T01:36:33;5.60;99.90
12833;DHT22;6483;51.310;4.462;2022-12-08T01:39:07;4.80;99.90
12833;DHT22;6483;51.310;4.462;2022-12-08T01:41:37;4.90;99.90
12833;DHT22;6483;51.310;4.462;2022-12-08T01:46:43;4.90;99.90
12833;DHT22;6483;51.310;4.462;2022-12-08T01:52:24;5.00;99.90
12833;DHT22;6483;51.310;4.462;2022-12-08T01:55:03;5.00;99.90
12833;DHT22;6483;51.310;4.462;2022-12-08T01:57:42;5.00;99.90
12833;DHT22;6483;51.310;4.462;2022-12-08T02:00:13;4.90;99.90
12833;DHT22;6483;51.310;4.462;2022-12-08T02:02:52;4.90;99.90
12833;DHT22;6483;51.310;4.462;2022-12-08T02:05:20;4.90;99.90
12833;DHT22;6483;51.310;4.462;2022-12-08T02:07:51;4.90;99.90
12833;DHT22;6483;51.310;4.462;2022-12-08T02:10:20;4.80;99.90
12833;DHT22;6483;51.310;4.462;2022-12-08T02:12:47;4.80;99.90
12833;DHT22;6483;51.310;4.462;2022-12-08T02:15:14;4.70;99.90
12833;DHT22;6483;51.310;4.462;2022-12-08T02:17:57;5.50;99.90
12833;DHT22;6483;51.310;4.462;2022-12-08T02:23:40;4.70;99.90
12833;DHT22;6483;51.310;4.462;2022-12-08T02:38:28;4.80;99.90
12833;DHT22;6483;51.310;4.462;2022-12-08T02:43:38;4.90;99.90
12833;DHT22;6483;51.310;4.462;2022-12-08T02:46:10;5.00;99.90
12833;DHT22;6483;51.310;4.462;2022-12-08T02:48:37;6.50;99.90
12833;DHT22;6483;51.310;4.462;2022-12-08T02:51:05;7.30;99.90
12833;DHT22;6483;51.310;4.462;2022-12-08T02:53:33;5.10;99.90
12833;DHT22;6483;51.310;4.462;2022-12-08T03:01:46;5.00;99.90
12833;DHT22;6483;51.310;4.462;2022-12-08T03:04:27;5.00;99.90
12833;DHT22;6483;51.310;4.462;2022-12-08T03:07:11;5.00;99.90
12833;DHT22;6483;51.310;4.462;2022-12-08T03:14:52;5.00;99.90
12833;DHT22;6483;51.310;4.462;2022-12-08T03:17:21;4.90;99.90
12833;DHT22;6483;51.310;4.462;2022-12-08T03:19:48;4.80;99.90
12833;DHT22;6483;51.310;4.462;2022-12-08T03:22:17;6.50;99.90
12833;DHT22;6483;51.310;4.462;2022-12-08T03:24:48;7.10;99.90
12833;DHT22;6483;51.310;4.462;2022-12-08T03:27:27;4.60;99.90
12833;DHT22;6483;51.310;4.462;2022-12-08T03:29:54;4.50;99.90
12833;DHT22;6483;51.310;4.462;2022-12-08T03:35:25;4.30;99.90
12833;DHT22;6483;51.310;4.462;2022-12-08T03:38:20;5.90;99.90
12833;DHT22;6483;51.310;4.462;2022-12-08T03:40:46;5.80;99.90
12833;DHT22;6483;51.310;4.462;2022-12-08T03:43:32;5.00;99.90
12833;DHT22;6483;51.310;4.462;2022-12-08T03:45:58;4.50;99.90
12833;DHT22;6483;51.310;4.462;2022-12-08T03:48:23;4.50;99.90
12833;DHT22;6483;51.310;4.462;2022-12-08T03:50:49;4.50;99.90
12833;DHT22;6483;51.310;4.462;2022-12-08T03:53:18;4.50;99.90
12833;DHT22;6483;51.310;4.462;2022-12-08T03:55:46;4.50;99.90
12833;DHT22;6483;51.310;4.462;2022-12-08T03:58:13;4.60;99.90
12833;DHT22;6483;51.310;4.462;2022-12-08T04:00:43;4.60;99.90
12833;DHT22;6483;51.310;4.462;2022-12-08T04:03:11;7.20;99.90
12833;DHT22;6483;51.310;4.462;2022-12-08T04:05:37;4.70;99.90
12833;DHT22;6483;51.310;4.462;2022-12-08T04:08:04;4.70;99.90
12833;DHT22;6483;51.310;4.462;2022-12-08T04:10:30;4.80;99.90
12833;DHT22;6483;51.310;4.462;2022-12-08T04:12:56;4.90;99.90
12833;DHT22;6483;51.310;4.462;2022-12-08T04:15:25;4.90;99.90
12833;DHT22;6483;51.310;4.462;2022-12-08T04:17:51;4.90;99.90
12833;DHT22;6483;51.310;4.462;2022-12-08T04:20:17;4.90;99.90
12833;DHT22;6483;51.310;4.462;2022-12-08T04:22:42;5.90;99.90
12833;DHT22;6483;51.310;4.462;2022-12-08T04:25:08;4.90;99.90
12833;DHT22;6483;51.310;4.462;2022-12-08T04:27:36;4.90;99.90
12833;DHT22;6483;51.310;4.462;2022-12-08T04:30:02;4.90;99.90
12833;DHT22;6483;51.310;4.462;2022-12-08T04:32:28;4.90;99.90
12833;DHT22;6483;51.310;4.462;2022-12-08T04:34:57;5.00;99.90
12833;DHT22;6483;51.310;4.462;2022-12-08T04:37:22;4.70;99.90
12833;DHT22;6483;51.310;4.462;2022-12-08T04:39:48;4.70;99.90
12833;DHT22;6483;51.310;4.462;2022-12-08T04:42:14;4.50;99.90
12833;DHT22;6483;51.310;4.462;2022-12-08T04:44:41;4.40;99.90
12833;DHT22;6483;51.310;4.462;2022-12-08T04:47:06;4.40;99.90
12833;DHT22;6483;51.310;4.462;2022-12-08T04:49:33;4.30;99.90
12833;DHT22;6483;51.310;4.462;2022-12-08T04:52:01;4.40;99.90
12833;DHT22;6483;51.310;4.462;2022-12-08T04:54:30;4.40;99.90
12833;DHT22;6483;51.310;4.462;2022-12-08T04:57:00;4.30;99.90
12833;DHT22;6483;51.310;4.462;2022-12-08T04:59:25;4.30;99.90
12833;DHT22;6483;51.310;4.462;2022-12-08T05:01:51;4.40;99.90
12833;DHT22;6483;51.310;4.462;2022-12-08T05:04:19;4.40;99.90
12833;DHT22;6483;51.310;4.462;2022-12-08T05:06:44;4.40;99.90
12833;DHT22;6483;51.310;4.462;2022-12-08T05:09:10;6.90;99.90
12833;DHT22;6483;51.310;4.462;2022-12-08T05:11:36;5.60;99.90
12833;DHT22;6483;51.310;4.462;2022-12-08T05:14:17;4.30;99.90
12833;DHT22;6483;51.310;4.462;2022-12-08T05:16:44;4.30;99.90
12833;DHT22;6483;51.310;4.462;2022-12-08T05:19:10;5.10;99.90
12833;DHT22;6483;51.310;4.462;2022-12-08T05:21:37;4.30;99.90
12833;DHT22;6483;51.310;4.462;2022-12-08T05:24:06;4.30;99.90
12833;DHT22;6483;51.310;4.462;2022-12-08T05:26:50;4.20;99.90
12833;DHT22;6483;51.310;4.462;2022-12-08T05:29:19;4.30;99.90
12833;DHT22;6483;51.310;4.462;2022-12-08T05:31:44;4.20;99.90
12833;DHT22;6483;51.310;4.462;2022-12-08T05:34:10;4.30;99.90
12833;DHT22;6483;51.310;4.462;2022-12-08T05:36:35;4.30;99.90
12833;DHT22;6483;51.310;4.462;2022-12-08T05:39:01;4.30;99.90
12833;DHT22;6483;51.310;4.462;2022-12-08T05:41:27;7.00;99.90
12833;DHT22;6483;51.310;4.462;2022-12-08T05:43:53;4.40;99.90
12833;DHT22;6483;51.310;4.462;2022-12-08T05:46:18;5.80;99.90
12833;DHT22;6483;51.310;4.462;2022-12-08T05:48:44;4.40;99.90
12833;DHT22;6483;51.310;4.462;2022-12-08T05:51:22;4.40;99.90
12833;DHT22;6483;51.310;4.462;2022-12-08T05:53:52;4.50;99.90
12833;DHT22;6483;51.310;4.462;2022-12-08T05:56:18;4.40;99.90
12833;DHT22;6483;51.310;4.462;2022-12-08T05:58:44;4.40;99.90
12833;DHT22;6483;51.310;4.462;2022-12-08T06:01:37;4.40;99.90
12833;DHT22;6483;51.310;4.462;2022-12-08T06:04:04;6.00;99.90
12833;DHT22;6483;51.310;4.462;2022-12-08T06:06:30;6.00;99.90
12833;DHT22;6483;51.310;4.462;2022-12-08T06:09:00;4.20;99.90
12833;DHT22;6483;51.310;4.462;2022-12-08T06:11:28;4.30;99.90
12833;DHT22;6483;51.310;4.462;2022-12-08T06:13:55;4.20;99.90
12833;DHT22;6483;51.310;4.462;2022-12-08T06:16:21;4.20;99.90
12833;DHT22;6483;51.310;4.462;2022-12-08T06:18:47;4.20;99.90
12833;DHT22;6483;51.310;4.462;2022-12-08T06:21:14;4.20;99.90
12833;DHT22;6483;51.310;4.462;2022-12-08T06:23:40;4.20;99.90
12833;DHT22;6483;51.310;4.462;2022-12-08T06:26:16;4.20;99.90
12833;DHT22;6483;51.310;4.462;2022-12-08T06:28:45;4.20;99.90
12833;DHT22;6483;51.310;4.462;2022-12-08T06:31:14;4.20;99.90
12833;DHT22;6483;51.310;4.462;2022-12-08T06:33:41;4.50;99.90
12833;DHT22;6483;51.310;4.462;2022-12-08T06:36:07;4.30;99.90
12833;DHT22;6483;51.310;4.462;2022-12-08T06:38:35;4.30;99.90
12833;DHT22;6483;51.310;4.462;2022-12-08T06:41:04;4.20;99.90
12833;DHT22;6483;51.310;4.462;2022-12-08T06:43:32;4.20;99.90
12833;DHT22;6483;51.310;4.462;2022-12-08T06:45:58;4.20;99.90
12833;DHT22;6483;51.310;4.462;2022-12-08T06:48:24;4.20;99.90
12833;DHT22;6483;51.310;4.462;2022-12-08T06:50:50;4.20;99.90
12833;DHT22;6483;51.310;4.462;2022-12-08T06:53:17;4.10;99.90
12833;DHT22;6483;51.310;4.462;2022-12-08T06:56:03;4.20;99.90
12833;DHT22;6483;51.310;4.462;2022-12-08T06:58:32;4.20;99.90
12833;DHT22;6483;51.310;4.462;2022-12-08T07:01:03;4.10;99.90
12833;DHT22;6483;51.310;4.462;2022-12-08T07:03:29;4.10;99.90
12833;DHT22;6483;51.310;4.462;2022-12-08T07:05:55;5.80;99.90
12833;DHT22;6483;51.310;4.462;2022-12-08T07:08:22;5.10;99.90
12833;DHT22;6483;51.310;4.462;2022-12-08T07:10:48;4.10;99.90
12833;DHT22;6483;51.310;4.462;2022-12-08T07:13:23;4.10;99.90
12833;DHT22;6483;51.310;4.462;2022-12-08T07:16:16;4.10;99.90
12833;DHT22;6483;51.310;4.462;2022-12-08T07:18:41;4.10;99.90
12833;DHT22;6483;51.310;4.462;2022-12-08T07:21:12;4.00;99.90
12833;DHT22;6483;51.310;4.462;2022-12-08T07:23:39;4.00;99.90
12833;DHT22;6483;51.310;4.462;2022-12-08T07:26:29;4.00;99.90
12833;DHT22;6483;51.310;4.462;2022-12-08T07:28:58;5.50;99.90
12833;DHT22;6483;51.310;4.462;2022-12-08T07:31:25;4.00;99.90
12833;DHT22;6483;51.310;4.462;2022-12-08T07:33:52;5.70;99.90
12833;DHT22;6483;51.310;4.462;2022-12-08T07:36:18;5.00;99.90
12833;DHT22;6483;51.310;4.462;2022-12-08T07:38:48;4.10;99.90
12833;DHT22;6483;51.310;4.462;2022-12-08T07:41:16;4.10;99.90
12833;DHT22;6483;51.310;4.462;2022-12-08T07:43:43;4.00;99.90
12833;DHT22;6483;51.310;4.462;2022-12-08T07:46:14;5.90;99.90
12833;DHT22;6483;51.310;4.462;2022-12-08T07:48:41;4.10;99.90
12833;DHT22;6483;51.310;4.462;2022-12-08T07:51:09;4.00;99.90
12833;DHT22;6483;51.310;4.462;2022-12-08T07:53:35;4.10;99.90
12833;DHT22;6483;51.310;4.462;2022-12-08T07:56:24;4.10;99.90
12833;DHT22;6483;51.310;4.462;2022-12-08T07:58:49;4.10;99.90
12833;DHT22;6483;51.310;4.462;2022-12-08T08:01:36;6.10;99.90
12833;DHT22;6483;51.310;4.462;2022-12-08T08:04:03;4.10;99.90
12833;DHT22;6483;51.310;4.462;2022-12-08T08:06:53;4.10;99.90
12833;DHT22;6483;51.310;4.462;2022-12-08T08:09:18;4.30;99.90
12833;DHT22;6483;51.310;4.462;2022-12-08T08:12:04;4.30;99.90
12833;DHT22;6483;51.310;4.462;2022-12-08T08:14:32;4.20;99.90
12833;DHT22;6483;51.310;4.462;2022-12-08T08:16:59;4.30;99.90
12833;DHT22;6483;51.310;4.462;2022-12-08T08:19:24;4.60;99.90
12833;DHT22;6483;51.310;4.462;2022-12-08T08:21:50;4.30;99.90
12833;DHT22;6483;51.310;4.462;2022-12-08T08:24:16;4.10;99.90
12833;DHT22;6483;51.310;4.462;2022-12-08T08:26:42;4.20;99.90
12833;DHT22;6483;51.310;4.462;2022-12-08T08:29:08;4.20;99.90
12833;DHT22;6483;51.310;4.462;2022-12-08T08:31:35;4.30;99.90
12833;DHT22;6483;51.310;4.462;2022-12-08T08:34:01;4.70;99.90
12833;DHT22;6483;51.310;4.462;2022-12-08T08:36:30;4.40;99.90
12833;DHT22;6483;51.310;4.462;2022-12-08T08:38:59;4.10;99.90
12833;DHT22;6483;51.310;4.462;2022-12-08T08:41:25;4.10;99.90
12833;DHT22;6483;51.310;4.462;2022-12-08T08:43:51;4.20;99.90
12833;DHT22;6483;51.310;4.462;2022-12-08T08:46:16;5.20;99.90
12833;DHT22;6483;51.310;4.462;2022-12-08T08:48:42;4.10;99.90
12833;DHT22;6483;51.310;4.462;2022-12-08T08:51:10;5.60;99.90
12833;DHT22;6483;51.310;4.462;2022-12-08T08:53:36;4.00;99.90
12833;DHT22;6483;51.310;4.462;2022-12-08T08:56:17;5.40;99.90
12833;DHT22;6483;51.310;4.462;2022-12-08T08:58:46;4.10;99.90
12833;DHT22;6483;51.310;4.462;2022-12-08T09:01:16;4.20;99.90
12833;DHT22;6483;51.310;4.462;2022-12-08T09:03:46;4.30;99.90
12833;DHT22;6483;51.310;4.462;2022-12-08T09:06:14;4.30;99.90
12833;DHT22;6483;51.310;4.462;2022-12-08T09:08:41;4.40;99.90
12833;DHT22;6483;51.310;4.462;2022-12-08T09:11:09;4.50;99.90
12833;DHT22;6483;51.310;4.462;2022-12-08T09:13:35;4.60;99.90
12833;DHT22;6483;51.310;4.462;2022-12-08T09:16:06;5.80;99.90
12833;DHT22;6483;51.310;4.462;2022-12-08T09:18:32;5.10;99.90
12833;DHT22;6483;51.310;4.462;2022-12-08T09:21:08;5.80;99.90
12833;DHT22;6483;51.310;4.462;2022-12-08T09:23:35;5.60;99.90
12833;DHT22;6483;51.310;4.462;2022-12-08T09:26:05;5.70;99.90
12833;DHT22;6483;51.310;4.462;2022-12-08T09:28:31;5.50;99.90
12833;DHT22;6483;51.310;4.462;2022-12-08T09:31:00;5.40;99.90
12833;DHT22;6483;51.310;4.462;2022-12-08T09:33:25;5.80;99.90
12833;DHT22;6483;51.310;4.462;2022-12-08T09:35:54;5.90;99.90
12833;DHT22;6483;51.310;4.462;2022-12-08T09:38:20;5.80;99.90
12833;DHT22;6483;51.310;4.462;2022-12-08T09:40:55;5.80;99.90
12833;DHT22;6483;51.310;4.462;2022-12-08T09:46:20;5.80;99.90
12833;DHT22;6483;51.310;4.462;2022-12-08T09:49:19;5.80;99.90
12833;DHT22;6483;51.310;4.462;2022-12-08T09:51:47;5.20;99.90
12833;DHT22;6483;51.310;4.462;2022-12-08T09:54:18;6.20;99.90
12833;DHT22;6483;51.310;4.462;2022-12-08T09:56:46;6.20;99.90
12833;DHT22;6483;51.310;4.462;2022-12-08T10:01:48;6.00;99.90
12833;DHT22;6483;51.310;4.462;2022-12-08T10:04:27;5.90;99.90
12833;DHT22;6483;51.310;4.462;2022-12-08T10:09:51;5.60;99.90
12833;DHT22;6483;51.310;4.462;2022-12-08T10:18:03;5.10;99.90
12833;DHT22;6483;51.310;4.462;2022-12-08T10:20:42;5.00;99.90
12833;DHT22;6483;51.310;4.462;2022-12-08T10:23:12;4.80;99.90
12833;DHT22;6483;51.310;4.462;2022-12-08T10:26:00;4.70;99.90
12833;DHT22;6483;51.310;4.462;2022-12-08T10:28:27;4.60;99.90
12833;DHT22;6483;51.310;4.462;2022-12-08T10:30:53;4.40;99.90
12833;DHT22;6483;51.310;4.462;2022-12-08T10:33:20;4.30;99.90
12833;DHT22;6483;51.310;4.462;2022-12-08T10:35:48;4.80;99.90
12833;DHT22;6483;51.310;4.462;2022-12-08T10:38:25;4.20;99.90
12833;DHT22;6483;51.310;4.462;2022-12-08T10:40:53;4.30;99.90
12833;DHT22;6483;51.310;4.462;2022-12-08T10:43:26;4.50;99.90
12833;DHT22;6483;51.310;4.462;2022-12-08T10:45:52;4.30;99.90
12833;DHT22;6483;51.310;4.462;2022-12-08T10:48:20;4.30;99.90
12833;DHT22;6483;51.310;4.462;2022-12-08T10:53:29;4.30;99.90
12833;DHT22;6483;51.310;4.462;2022-12-08T10:56:15;4.30;99.90
12833;DHT22;6483;51.310;4.462;2022-12-08T10:58:43;4.30;99.90
12833;DHT22;6483;51.310;4.462;2022-12-08T11:01:45;4.30;99.90
12833;DHT22;6483;51.310;4.462;2022-12-08T11:04:53;4.20;99.90
12833;DHT22;6483;51.310;4.462;2022-12-08T11:07:08;4.30;99.90
12833;DHT22;6483;51.310;4.462;2022-12-08T11:09:47;4.50;99.90
12833;DHT22;6483;51.310;4.462;2022-12-08T11:12:19;4.40;99.90
12833;DHT22;6483;51.310;4.462;2022-12-08T11:14:47;4.50;99.90
12833;DHT22;6483;51.310;4.462;2022-12-08T11:20:00;4.80;99.90
12833;DHT22;6483;51.310;4.462;2022-12-08T11:22:31;4.80;99.90
12833;DHT22;6483;51.310;4.462;2022-12-08T11:27:34;4.90;99.90
12833;DHT22;6483;51.310;4.462;2022-12-08T11:30:21;5.00;99.90
12833;DHT22;6483;51.310;4.462;2022-12-08T11:32:49;5.00;99.90
12833;DHT22;6483;51.310;4.462;2022-12-08T11:37:49;5.20;99.90
12833;DHT22;6483;51.310;4.462;2022-12-08T11:40:22;5.40;99.90
12833;DHT22;6483;51.310;4.462;2022-12-08T11:45:40;5.50;99.90
12833;DHT22;6483;51.310;4.462;2022-12-08T11:48:16;5.40;99.90
12833;DHT22;6483;51.310;4.462;2022-12-08T11:50:57;5.40;99.90
12833;DHT22;6483;51.310;4.462;2022-12-08T11:53:46;5.40;99.90
12833;DHT22;6483;51.310;4.462;2022-12-08T11:56:23;5.30;99.90
12833;DHT22;6483;51.310;4.462;2022-12-08T11:59:00;5.20;99.90
12833;DHT22;6483;51.310;4.462;2022-12-08T12:01:34;5.10;99.90
12833;DHT22;6483;51.310;4.462;2022-12-08T12:07:10;4.80;99.90
12833;DHT22;6483;51.310;4.462;2022-12-08T12:12:24;4.50;99.90
12833;DHT22;6483;51.310;4.462;2022-12-08T12:18:30;4.20;99.90
12833;DHT22;6483;51.310;4.462;2022-12-08T12:20:57;4.00;99.90
12833;DHT22;6483;51.310;4.462;2022-12-08T12:24:06;3.70;99.90
12833;DHT22;6483;51.310;4.462;2022-12-08T12:29:23;3.20;99.90
12833;DHT22;6483;51.310;4.462;2022-12-08T12:31:57;3.20;99.90
12833;DHT22;6483;51.310;4.462;2022-12-08T12:34:56;3.20;99.90
12833;DHT22;6483;51.310;4.462;2022-12-08T12:37:37;3.40;99.90
12833;DHT22;6483;51.310;4.462;2022-12-08T12:40:19;3.50;99.90
12833;DHT22;6483;51.310;4.462;2022-12-08T12:43:33;3.50;99.90
12833;DHT22;6483;51.310;4.462;2022-12-08T12:45:35;3.40;99.90
12833;DHT22;6483;51.310;4.462;2022-12-08T12:48:21;3.30;99.90
12833;DHT22;6483;51.310;4.462;2022-12-08T12:50:49;3.30;99.90
12833;DHT22;6483;51.310;4.462;2022-12-08T12:56:01;3.30;99.90
12833;DHT22;6483;51.310;4.462;2022-12-08T13:06:36;3.80;99.90
12833;DHT22;6483;51.310;4.462;2022-12-08T13:09:03;3.90;99.90
12833;DHT22;6483;51.310;4.462;2022-12-08T13:12:29;4.00;99.90
12833;DHT22;6483;51.310;4.462;2022-12-08T13:14:48;4.00;99.90
12833;DHT22;6483;51.310;4.462;2022-12-08T13:17:42;4.00;99.90
12833;DHT22;6483;51.310;4.462;2022-12-08T13:20:39;4.00;99.90
12833;DHT22;6483;51.310;4.462;2022-12-08T13:26:07;4.00;99.90
12833;DHT22;6483;51.310;4.462;2022-12-08T13:34:48;4.10;99.90
12833;DHT22;6483;51.310;4.462;2022-12-08T13:37:42;4.20;99.90
12833;DHT22;6483;51.310;4.462;2022-12-08T13:40:14;4.30;99.90
12833;DHT22;6483;51.310;4.462;2022-12-08T13:43:04;4.30;99.90
12833;DHT22;6483;51.310;4.462;2022-12-08T13:45:32;5.50;99.90
12833;DHT22;6483;51.310;4.462;2022-12-08T13:51:17;4.60;99.90
12833;DHT22;6483;51.310;4.462;2022-12-08T13:53:58;4.60;99.90
12833;DHT22;6483;51.310;4.462;2022-12-08T13:56:26;4.70;99.90
12833;DHT22;6483;51.310;4.462;2022-12-08T13:59:28;4.70;99.90
12833;DHT22;6483;51.310;4.462;2022-12-08T14:01:57;4.80;99.90
12833;DHT22;6483;51.310;4.462;2022-12-08T14:04:24;4.70;99.90
12833;DHT22;6483;51.310;4.462;2022-12-08T14:07:00;4.70;99.90
12833;DHT22;6483;51.310;4.462;2022-12-08T14:09:32;4.80;99.90
12833;DHT22;6483;51.310;4.462;2022-12-08T14:12:08;4.80;99.90
12833;DHT22;6483;51.310;4.462;2022-12-08T14:14:47;4.70;99.90
12833;DHT22;6483;51.310;4.462;2022-12-08T14:17:16;4.80;99.90
12833;DHT22;6483;51.310;4.462;2022-12-08T14:19:51;4.70;99.90
12833;DHT22;6483;51.310;4.462;2022-12-08T14:22:17;4.60;99.90
12833;DHT22;6483;51.310;4.462;2022-12-08T14:24:45;4.50;99.90
12833;DHT22;6483;51.310;4.462;2022-12-08T14:27:14;5.10;99.90
12833;DHT22;6483;51.310;4.462;2022-12-08T14:33:00;4.50;99.90
12833;DHT22;6483;51.310;4.462;2022-12-08T14:35:34;5.70;99.90
12833;DHT22;6483;51.310;4.462;2022-12-08T14:40:33;4.70;99.90
12833;DHT22;6483;51.310;4.462;2022-12-08T14:43:13;4.60;99.90
12833;DHT22;6483;51.310;4.462;2022-12-08T14:48:38;4.50;99.90
12833;DHT22;6483;51.310;4.462;2022-12-08T14:51:20;4.50;99.90
12833;DHT22;6483;51.310;4.462;2022-12-08T14:54:05;4.50;99.90
12833;DHT22;6483;51.310;4.462;2022-12-08T14:56:36;4.50;99.90
12833;DHT22;6483;51.310;4.462;2022-12-08T14:59:35;4.40;99.90
12833;DHT22;6483;51.310;4.462;2022-12-08T15:04:48;4.50;99.90
12833;DHT22;6483;51.310;4.462;2022-12-08T15:07:20;4.40;99.90
12833;DHT22;6483;51.310;4.462;2022-12-08T15:12:32;4.30;99.90
12833;DHT22;6483;51.310;4.462;2022-12-08T15:15:15;4.20;99.90
12833;DHT22;6483;51.310;4.462;2022-12-08T15:18:12;4.10;99.90
12833;DHT22;6483;51.310;4.462;2022-12-08T15:20:43;4.00;99.90
12833;DHT22;6483;51.310;4.462;2022-12-08T15:23:28;3.90;99.90
12833;DHT22;6483;51.310;4.462;2022-12-08T15:25:56;3.80;99.90
12833;DHT22;6483;51.310;4.462;2022-12-08T15:28:42;3.80;99.90
12833;DHT22;6483;51.310;4.462;2022-12-08T15:31:09;3.90;99.90
12833;DHT22;6483;51.310;4.462;2022-12-08T15:33:35;3.80;99.90
12833;DHT22;6483;51.310;4.462;2022-12-08T15:36:07;3.80;99.90
12833;DHT22;6483;51.310;4.462;2022-12-08T15:38:40;3.90;99.90
12833;DHT22;6483;51.310;4.462;2022-12-08T15:41:07;3.90;99.90
12833;DHT22;6483;51.310;4.462;2022-12-08T15:43:33;3.90;99.90
12833;DHT22;6483;51.310;4.462;2022-12-08T15:45:58;3.90;99.90
12833;DHT22;6483;51.310;4.462;2022-12-08T15:48:27;3.90;99.90
12833;DHT22;6483;51.310;4.462;2022-12-08T15:50:57;5.10;99.90
12833;DHT22;6483;51.310;4.462;2022-12-08T15:53:23;4.00;99.90
12833;DHT22;6483;51.310;4.462;2022-12-08T15:55:53;4.20;99.90
12833;DHT22;6483;51.310;4.462;2022-12-08T15:58:21;4.10;99.90
12833;DHT22;6483;51.310;4.462;2022-12-08T16:00:48;4.00;99.90
12833;DHT22;6483;51.310;4.462;2022-12-08T16:03:28;4.00;99.90
12833;DHT22;6483;51.310;4.462;2022-12-08T16:05:56;3.90;99.90
12833;DHT22;6483;51.310;4.462;2022-12-08T16:08:24;3.90;99.90
12833;DHT22;6483;51.310;4.462;2022-12-08T16:10:50;5.60;99.90
12833;DHT22;6483;51.310;4.462;2022-12-08T16:13:19;3.80;99.90
12833;DHT22;6483;51.310;4.462;2022-12-08T16:16:10;3.80;99.90
12833;DHT22;6483;51.310;4.462;2022-12-08T16:18:38;3.70;99.90
12833;DHT22;6483;51.310;4.462;2022-12-08T16:21:05;3.60;99.90
12833;DHT22;6483;51.310;4.462;2022-12-08T16:23:34;3.50;99.90
12833;DHT22;6483;51.310;4.462;2022-12-08T16:26:00;3.50;99.90
12833;DHT22;6483;51.310;4.462;2022-12-08T16:28:26;5.90;99.90
12833;DHT22;6483;51.310;4.462;2022-12-08T16:30:52;3.40;99.90
12833;DHT22;6483;51.310;4.462;2022-12-08T16:33:17;3.40;99.90
12833;DHT22;6483;51.310;4.462;2022-12-08T16:35:46;3.30;99.90
12833;DHT22;6483;51.310;4.462;2022-12-08T16:38:15;3.30;99.90
12833;DHT22;6483;51.310;4.462;2022-12-08T16:40:48;3.30;99.90
12833;DHT22;6483;51.310;4.462;2022-12-08T16:43:45;3.10;99.90
12833;DHT22;6483;51.310;4.462;2022-12-08T16:46:19;3.00;99.90
12833;DHT22;6483;51.310;4.462;2022-12-08T16:48:48;3.60;99.90
12833;DHT22;6483;51.310;4.462;2022-12-08T16:51:19;3.00;99.90
12833;DHT22;6483;51.310;4.462;2022-12-08T16:53:46;3.20;99.90
12833;DHT22;6483;51.310;4.462;2022-12-08T16:56:22;2.80;99.90
12833;DHT22;6483;51.310;4.462;2022-12-08T16:58:47;2.80;99.90
12833;DHT22;6483;51.310;4.462;2022-12-08T17:01:15;2.80;99.90
12833;DHT22;6483;51.310;4.462;2022-12-08T17:03:42;2.80;99.90
12833;DHT22;6483;51.310;4.462;2022-12-08T17:06:14;3.10;99.90
12833;DHT22;6483;51.310;4.462;2022-12-08T17:08:43;3.50;99.90
12833;DHT22;6483;51.310;4.462;2022-12-08T17:11:21;4.70;99.90
12833;DHT22;6483;51.310;4.462;2022-12-08T17:13:50;2.70;99.90
12833;DHT22;6483;51.310;4.462;2022-12-08T17:16:19;2.70;99.90
12833;DHT22;6483;51.310;4.462;2022-12-08T17:18:46;2.80;99.90
12833;DHT22;6483;51.310;4.462;2022-12-08T17:21:16;2.80;99.90
12833;DHT22;6483;51.310;4.462;2022-12-08T17:23:48;2.70;99.90
12833;DHT22;6483;51.310;4.462;2022-12-08T17:26:17;2.80;99.90
12833;DHT22;6483;51.310;4.462;2022-12-08T17:28:42;2.80;99.90
12833;DHT22;6483;51.310;4.462;2022-12-08T17:31:10;3.00;99.90
12833;DHT22;6483;51.310;4.462;2022-12-08T17:33:40;3.00;99.90
12833;DHT22;6483;51.310;4.462;2022-12-08T17:36:14;3.00;99.90
12833;DHT22;6483;51.310;4.462;2022-12-08T17:38:40;4.60;99.90
12833;DHT22;6483;51.310;4.462;2022-12-08T17:41:08;3.20;99.90
12833;DHT22;6483;51.310;4.462;2022-12-08T17:43:38;3.30;99.90
12833;DHT22;6483;51.310;4.462;2022-12-08T17:46:05;3.40;99.90
12833;DHT22;6483;51.310;4.462;2022-12-08T17:48:34;3.50;99.90
12833;DHT22;6483;51.310;4.462;2022-12-08T17:51:00;4.60;99.90
12833;DHT22;6483;51.310;4.462;2022-12-08T17:53:26;4.30;99.90
12833;DHT22;6483;51.310;4.462;2022-12-08T17:55:53;3.50;99.90
12833;DHT22;6483;51.310;4.462;2022-12-08T17:58:21;3.50;99.90
12833;DHT22;6483;51.310;4.462;2022-12-08T18:00:47;3.60;99.90
12833;DHT22;6483;51.310;4.462;2022-12-08T18:03:13;3.60;99.90
12833;DHT22;6483;51.310;4.462;2022-12-08T18:05:39;3.70;99.90
12833;DHT22;6483;51.310;4.462;2022-12-08T18:08:05;3.60;99.90
12833;DHT22;6483;51.310;4.462;2022-12-08T18:10:31;3.70;99.90
12833;DHT22;6483;51.310;4.462;2022-12-08T18:12:57;5.80;99.90
12833;DHT22;6483;51.310;4.462;2022-12-08T18:15:27;3.70;99.90
12833;DHT22;6483;51.310;4.462;2022-12-08T18:17:54;3.60;99.90
12833;DHT22;6483;51.310;4.462;2022-12-08T18:20:20;3.60;99.90
12833;DHT22;6483;51.310;4.462;2022-12-08T18:22:45;3.60;99.90